createdAt,value
2023-03-03T00:01:56.737Z,12.95
2023-03-03T00:04:26.212Z,11.45
2023-03-03T00:06:58.378Z,11.50
2023-03-03T00:09:27.880Z,13.38
2023-03-03T00:11:58.475Z,14.00
2023-03-03T00:14:30.148Z,11.55
2023-03-03T00:16:59.798Z,11.63
2023-03-03T00:19:29.326Z,12.10
2023-03-03T00:22:01.318Z,10.07
2023-03-03T00:24:35.632Z,10.10
2023-03-03T00:27:09.886Z,11.05
2023-03-03T00:29:39.913Z,11.13
2023-03-03T00:32:28.141Z,10.98
2023-03-03T00:34:58.964Z,9.98
2023-03-03T00:37:37.907Z,11.77
2023-03-03T00:40:24.959Z,9.88
2023-03-03T00:42:55.633Z,10.57
2023-03-03T00:45:36.483Z,10.82
2023-03-03T00:48:28.468Z,10.02
2023-03-03T00:50:58.388Z,10.95
2023-03-03T00:53:32.787Z,9.90
2023-03-03T00:56:02.405Z,10.60
2023-03-03T00:58:31.839Z,11.75
2023-03-03T01:01:01.415Z,9.85
2023-03-03T01:03:30.827Z,11.63
2023-03-03T01:06:00.306Z,10.77
2023-03-03T01:08:32.299Z,12.40
2023-03-03T01:11:02.972Z,11.90
2023-03-03T01:13:33.321Z,11.23
2023-03-03T01:16:02.839Z,11.05
2023-03-03T01:18:32.589Z,11.27
2023-03-03T01:21:02.126Z,11.40
2023-03-03T01:23:34.164Z,11.18
2023-03-03T01:26:03.650Z,11.90
2023-03-03T01:28:33.075Z,10.75
2023-03-03T01:31:04.185Z,12.57
2023-03-03T01:36:03.812Z,11.02
2023-03-03T01:38:37.796Z,12.30
2023-03-03T01:41:07.789Z,11.88
2023-03-03T01:43:37.344Z,12.40
2023-03-03T01:46:34.889Z,11.15
2023-03-03T01:49:05.407Z,12.13
2023-03-03T01:51:36.294Z,11.85
2023-03-03T01:54:09.551Z,13.40
2023-03-03T01:56:38.995Z,11.77
2023-03-03T01:59:09.114Z,11.98
2023-03-03T02:01:38.704Z,11.63
2023-03-03T02:04:08.411Z,12.77
2023-03-03T02:06:39.792Z,11.07
2023-03-03T02:09:14.472Z,11.95
2023-03-03T02:11:45.075Z,11.55
2023-03-03T02:14:14.650Z,12.57
2023-03-03T02:16:44.104Z,13.30
2023-03-03T02:19:19.287Z,11.63
2023-03-03T02:21:48.728Z,11.52
2023-03-03T02:24:24.527Z,12.32
2023-03-03T02:26:56.574Z,12.75
2023-03-03T02:29:26.014Z,15.73
2023-03-03T02:31:55.584Z,13.82
2023-03-03T02:34:25.080Z,15.02
2023-03-03T02:36:54.538Z,13.82
2023-03-03T02:39:26.514Z,14.90
2023-03-03T02:42:00.515Z,14.93
2023-03-03T02:44:30.809Z,13.02
2023-03-03T02:47:00.586Z,15.10
2023-03-03T02:49:32.216Z,13.93
2023-03-03T02:52:01.916Z,14.68
2023-03-03T02:54:32.507Z,13.63
2023-03-03T02:57:04.624Z,13.27
2023-03-03T02:59:34.066Z,14.68
2023-03-03T03:02:03.656Z,12.77
2023-03-03T03:04:33.141Z,12.40
2023-03-03T03:07:03.549Z,13.38
2023-03-03T03:09:33.051Z,14.25
2023-03-03T03:12:05.391Z,14.73
2023-03-03T03:14:34.875Z,12.70
2023-03-03T03:17:04.898Z,13.85
2023-03-03T03:19:34.331Z,13.85
2023-03-03T03:25:21.618Z,14.45
2023-03-03T03:27:53.657Z,14.30
2023-03-03T03:30:23.174Z,14.98
2023-03-03T03:32:52.656Z,14.25
2023-03-03T03:35:22.144Z,16.23
2023-03-03T03:37:51.604Z,15.63
2023-03-03T03:40:21.362Z,17.33
2023-03-03T03:42:53.414Z,18.05
2023-03-03T03:45:22.934Z,16.55
2023-03-03T03:47:52.445Z,17.73
2023-03-03T03:50:22.072Z,17.83
2023-03-03T03:52:52.162Z,17.08
2023-03-03T03:55:22.614Z,19.20
2023-03-03T03:57:54.646Z,18.00
2023-03-03T04:00:24.243Z,18.60
2023-03-03T04:02:53.940Z,18.92
2023-03-03T04:05:23.511Z,21.35
2023-03-03T04:07:52.992Z,21.98
2023-03-03T04:10:22.449Z,22.92
2023-03-03T04:12:54.489Z,26.15
2023-03-03T04:15:23.947Z,21.40
2023-03-03T04:17:53.400Z,20.70
2023-03-03T04:20:23.098Z,27.15
2023-03-03T04:22:52.718Z,28.13
2023-03-03T04:25:22.373Z,29.60
2023-03-03T04:27:54.827Z,28.65
2023-03-03T04:30:24.288Z,28.48
2023-03-03T04:32:53.933Z,28.42
2023-03-03T04:35:23.433Z,30.02
2023-03-03T04:37:52.914Z,32.35
2023-03-03T04:40:22.541Z,30.88
2023-03-03T04:42:54.703Z,30.20
2023-03-03T04:45:26.494Z,31.25
2023-03-03T04:47:55.976Z,32.20
2023-03-03T04:50:25.416Z,30.25
2023-03-03T04:52:54.843Z,33.03
2023-03-03T04:55:24.338Z,30.88
2023-03-03T04:57:56.633Z,36.30
2023-03-03T05:00:26.294Z,33.17
2023-03-03T05:02:55.747Z,31.83
2023-03-03T05:05:28.070Z,34.15
2023-03-03T05:07:57.550Z,33.50
2023-03-03T05:10:29.765Z,33.88
2023-03-03T05:13:01.822Z,31.58
2023-03-03T05:15:31.309Z,35.08
2023-03-03T05:18:00.803Z,32.53
2023-03-03T05:20:30.262Z,32.33
2023-03-03T05:23:01.633Z,33.20
2023-03-03T05:25:31.149Z,34.03
2023-03-03T05:28:04.733Z,36.08
2023-03-03T05:30:34.253Z,35.40
2023-03-03T05:33:03.716Z,33.80
2023-03-03T05:35:33.255Z,28.40
2023-03-03T05:38:05.326Z,28.85
2023-03-03T05:40:35.030Z,32.05
2023-03-03T05:43:07.252Z,28.65
2023-03-03T05:45:36.713Z,28.60
2023-03-03T05:48:06.492Z,28.27
2023-03-03T05:50:36.144Z,28.80
2023-03-03T05:53:05.616Z,33.03
2023-03-03T05:55:35.086Z,33.60
2023-03-03T05:58:07.124Z,36.13
2023-03-03T06:00:36.589Z,36.80
2023-03-03T06:03:06.218Z,34.38
2023-03-03T06:05:35.726Z,36.00
2023-03-03T06:08:05.176Z,36.00
2023-03-03T06:10:34.997Z,35.65
2023-03-03T06:13:07.347Z,35.35
2023-03-03T06:15:39.569Z,35.65
2023-03-03T06:18:09.066Z,37.65
2023-03-03T06:20:38.832Z,34.88
2023-03-03T06:23:08.416Z,37.97
2023-03-03T06:25:38.364Z,37.53
2023-03-03T06:28:10.416Z,40.95
2023-03-03T06:30:40.316Z,41.05
2023-03-03T06:33:09.842Z,39.85
2023-03-03T06:35:39.599Z,38.08
2023-03-03T06:38:09.089Z,38.28
2023-03-03T06:40:38.927Z,40.38
2023-03-03T06:43:10.954Z,39.22
2023-03-03T06:45:40.792Z,38.38
2023-03-03T06:48:10.313Z,38.47
2023-03-03T06:50:39.820Z,41.00
2023-03-03T06:53:14.213Z,40.58
2023-03-03T06:55:44.932Z,38.03
2023-03-03T06:58:17.925Z,36.25
2023-03-03T07:00:48.086Z,37.38
2023-03-03T07:03:18.453Z,38.17
2023-03-03T07:05:48.129Z,39.28
2023-03-03T07:08:18.718Z,42.63
2023-03-03T07:10:48.486Z,38.78
2023-03-03T07:13:23.106Z,41.00
2023-03-03T07:15:53.002Z,40.45
2023-03-03T07:18:37.812Z,39.08
2023-03-03T07:21:17.493Z,38.25
2023-03-03T07:23:47.506Z,42.88
2023-03-03T07:26:17.774Z,40.90
2023-03-03T07:28:53.715Z,38.70
2023-03-03T07:31:30.240Z,36.72
2023-03-03T07:34:00.344Z,39.42
2023-03-03T07:36:31.398Z,37.53
2023-03-03T07:41:31.668Z,36.07
2023-03-03T07:44:07.746Z,35.63
2023-03-03T07:46:39.737Z,36.38
2023-03-03T07:49:18.876Z,36.95
2023-03-03T07:51:48.354Z,35.03
2023-03-03T07:54:30.721Z,34.63
2023-03-03T07:57:00.769Z,36.33
2023-03-03T07:59:32.929Z,35.00
2023-03-03T08:02:02.404Z,32.67
2023-03-03T08:04:32.580Z,33.42
2023-03-03T08:07:02.350Z,35.53
2023-03-03T08:09:43.801Z,34.53
2023-03-03T08:12:38.024Z,35.78
2023-03-03T08:15:31.292Z,41.42
2023-03-03T08:18:00.785Z,41.00
2023-03-03T08:20:49.014Z,35.70
2023-03-03T08:23:19.292Z,33.88
2023-03-03T08:25:49.323Z,32.08
2023-03-03T08:28:19.043Z,28.08
2023-03-03T08:30:52.122Z,36.38
2023-03-03T08:33:22.634Z,44.88
2023-03-03T08:35:52.140Z,32.92
2023-03-03T08:38:22.633Z,32.88
2023-03-03T08:40:52.228Z,31.33
2023-03-03T08:43:22.884Z,31.88
2023-03-03T08:45:55.871Z,31.23
2023-03-03T08:48:25.373Z,32.13
2023-03-03T08:50:55.014Z,31.77
2023-03-03T08:53:24.624Z,30.92
2023-03-03T08:55:54.123Z,29.77
2023-03-03T08:58:33.577Z,31.25
2023-03-03T09:01:06.858Z,30.63
2023-03-03T09:03:36.307Z,29.20
2023-03-03T09:06:05.761Z,32.55
2023-03-03T09:08:35.264Z,30.75
2023-03-03T09:11:05.015Z,33.30
2023-03-03T09:13:34.511Z,31.23
2023-03-03T09:16:09.997Z,31.60
2023-03-03T09:18:40.245Z,31.33
2023-03-03T09:21:20.793Z,31.87
2023-03-03T09:23:52.656Z,30.77
2023-03-03T09:26:32.448Z,33.67
2023-03-03T09:29:18.407Z,31.83
2023-03-03T09:31:51.807Z,33.45
2023-03-03T09:34:26.122Z,33.35
2023-03-03T09:36:56.083Z,32.28
2023-03-03T09:39:26.216Z,34.00
2023-03-03T09:42:26.094Z,33.92
2023-03-03T09:45:28.369Z,32.95
2023-03-03T09:48:28.062Z,30.65
2023-03-03T09:51:04.128Z,31.25
2023-03-03T09:53:50.268Z,32.45
2023-03-03T09:56:22.132Z,32.47
2023-03-03T09:59:04.691Z,32.22
2023-03-03T10:01:51.794Z,33.97
2023-03-03T10:04:45.547Z,33.10
2023-03-03T10:07:26.183Z,33.00
2023-03-03T10:10:06.215Z,31.50
2023-03-03T10:12:38.323Z,30.75
2023-03-03T10:15:31.907Z,32.80
2023-03-03T10:18:04.455Z,30.55
2023-03-03T10:20:55.217Z,32.78
2023-03-03T10:23:27.027Z,30.92
2023-03-03T10:26:00.863Z,30.67
2023-03-03T10:28:53.798Z,31.33
2023-03-03T10:31:29.028Z,30.30
2023-03-03T10:34:00.681Z,30.95
2023-03-03T10:36:44.601Z,30.10
2023-03-03T10:39:30.959Z,29.23
2023-03-03T10:42:07.750Z,29.13
2023-03-03T10:44:46.884Z,31.27
2023-03-03T10:47:32.752Z,30.20
2023-03-03T10:50:06.959Z,32.60
2023-03-03T10:52:41.752Z,31.25
2023-03-03T10:55:41.830Z,28.95
2023-03-03T10:58:35.663Z,31.20
2023-03-03T11:01:10.337Z,30.23
2023-03-03T11:03:54.718Z,27.77
2023-03-03T11:06:26.220Z,28.35
2023-03-03T11:08:59.852Z,29.58
2023-03-03T11:11:34.724Z,29.65
2023-03-03T11:14:06.484Z,30.50
2023-03-03T11:16:50.527Z,28.92
2023-03-03T11:19:40.193Z,27.55
2023-03-03T11:22:19.562Z,27.20
2023-03-03T11:24:57.518Z,25.65
2023-03-03T11:27:41.300Z,26.98
2023-03-03T11:30:27.165Z,26.55
2023-03-03T11:33:00.401Z,25.08
2023-03-03T11:35:30.875Z,26.40
2023-03-03T11:38:05.916Z,25.60
2023-03-03T11:40:40.848Z,25.42
2023-03-03T11:43:26.286Z,24.88
2023-03-03T11:46:06.850Z,24.63
2023-03-03T11:48:39.066Z,23.00
2023-03-03T11:51:09.422Z,24.45
2023-03-03T11:53:47.852Z,24.45
2023-03-03T11:56:24.143Z,24.00
2023-03-03T11:58:58.064Z,21.73
2023-03-03T12:01:30.281Z,27.92
2023-03-03T12:04:00.433Z,25.88
2023-03-03T12:06:34.034Z,28.80
2023-03-03T12:09:07.422Z,25.92
2023-03-03T12:11:42.564Z,26.45
2023-03-03T12:14:14.374Z,25.50
2023-03-03T12:16:48.038Z,25.85
2023-03-03T12:19:34.607Z,22.90
2023-03-03T12:22:24.786Z,23.20
2023-03-03T12:25:16.115Z,23.20
2023-03-03T12:30:23.785Z,22.55
2023-03-03T12:33:07.220Z,19.55
2023-03-03T12:35:39.236Z,20.17
2023-03-03T12:38:11.970Z,19.65
2023-03-03T12:40:43.584Z,26.20
2023-03-03T12:43:25.919Z,26.08
2023-03-03T12:46:00.312Z,25.48
2023-03-03T12:48:35.862Z,25.55
2023-03-03T12:51:07.566Z,24.88
2023-03-03T12:53:49.567Z,26.13
2023-03-03T12:56:21.806Z,28.00
2023-03-03T12:58:58.020Z,24.35
2023-03-03T13:01:44.155Z,25.55
2023-03-03T13:04:16.779Z,24.77
2023-03-03T13:06:48.867Z,25.25
2023-03-03T13:09:23.264Z,24.58
2023-03-03T13:12:02.767Z,25.10
2023-03-03T13:14:38.710Z,24.30
2023-03-03T13:17:16.620Z,26.27
2023-03-03T13:19:48.612Z,24.85
2023-03-03T13:22:20.205Z,25.52
2023-03-03T13:24:58.423Z,24.70
2023-03-03T13:27:28.553Z,23.27
2023-03-03T13:30:03.490Z,25.35
2023-03-03T13:32:37.547Z,23.42
2023-03-03T13:35:10.305Z,22.38
2023-03-03T13:37:42.224Z,23.55
2023-03-03T13:40:18.413Z,24.33
2023-03-03T13:42:49.301Z,24.17
2023-03-03T13:45:26.661Z,22.67
2023-03-03T13:48:00.805Z,21.50
2023-03-03T13:50:31.101Z,23.70
2023-03-03T13:53:16.416Z,21.47
2023-03-03T13:55:46.693Z,23.67
2023-03-03T13:58:21.222Z,26.08
2023-03-03T14:01:00.061Z,25.67
2023-03-03T14:03:50.645Z,24.90
2023-03-03T14:06:20.739Z,23.80
2023-03-03T14:08:57.512Z,25.63
2023-03-03T14:11:29.133Z,25.08
2023-03-03T14:14:03.416Z,25.02
2023-03-03T14:16:45.146Z,25.52
2023-03-03T14:19:17.803Z,23.90
2023-03-03T14:21:52.034Z,25.42
2023-03-03T14:24:22.581Z,27.48
2023-03-03T14:26:53.031Z,29.38
2023-03-03T14:29:25.065Z,24.65
2023-03-03T14:31:57.326Z,27.80
2023-03-03T14:34:37.268Z,27.45
2023-03-03T14:37:23.579Z,27.45
2023-03-03T14:39:55.537Z,25.75
2023-03-03T14:42:35.504Z,28.10
2023-03-03T14:45:14.565Z,23.25
2023-03-03T14:47:55.756Z,24.88
2023-03-03T14:50:34.734Z,23.88
2023-03-03T14:53:17.548Z,25.70
2023-03-03T14:55:48.156Z,29.80
2023-03-03T14:58:32.262Z,27.58
2023-03-03T15:01:15.492Z,27.77
2023-03-03T15:03:52.614Z,27.52
2023-03-03T15:06:39.879Z,28.63
2023-03-03T15:09:28.068Z,27.55
2023-03-03T15:11:58.031Z,28.52
2023-03-03T15:14:32.598Z,26.90
2023-03-03T15:17:19.250Z,27.23
2023-03-03T15:19:55.593Z,24.15
2023-03-03T15:22:39.177Z,24.88
2023-03-03T15:25:13.851Z,25.15
2023-03-03T15:27:45.653Z,25.10
2023-03-03T15:30:21.648Z,24.88
2023-03-03T15:32:53.590Z,27.00
2023-03-03T15:35:37.868Z,26.48
2023-03-03T15:38:13.289Z,25.83
2023-03-03T15:40:45.182Z,25.67
2023-03-03T15:43:17.985Z,28.25
2023-03-03T15:45:49.257Z,28.83
2023-03-03T15:48:27.227Z,28.13
2023-03-03T15:51:06.351Z,28.08
2023-03-03T15:53:53.770Z,27.30
2023-03-03T15:56:28.831Z,28.33
2023-03-03T15:59:18.994Z,30.23
2023-03-03T16:01:50.382Z,28.73
2023-03-03T16:04:21.725Z,30.05
2023-03-03T16:06:57.459Z,30.77
2023-03-03T16:09:33.994Z,28.98
2023-03-03T16:12:05.849Z,32.55
2023-03-03T16:14:47.630Z,32.25
2023-03-03T16:17:23.616Z,31.50
2023-03-03T16:19:56.436Z,33.13
2023-03-03T16:22:39.498Z,33.47
2023-03-03T16:25:39.952Z,30.58
2023-03-03T16:28:11.389Z,34.80
2023-03-03T16:30:43.081Z,34.33
2023-03-03T16:33:17.435Z,39.20
2023-03-03T16:35:50.639Z,35.80
2023-03-03T16:38:24.937Z,35.42
2023-03-03T16:40:55.806Z,37.22
2023-03-03T16:43:26.922Z,41.78
2023-03-03T16:48:31.769Z,34.03
2023-03-03T16:51:07.572Z,38.92
2023-03-03T16:53:48.108Z,36.33
2023-03-03T16:56:20.284Z,38.25
2023-03-03T16:58:58.222Z,39.28
2023-03-03T17:01:31.041Z,37.40
2023-03-03T17:04:03.772Z,39.22
2023-03-03T17:06:43.804Z,37.70
2023-03-03T17:09:36.702Z,36.70
2023-03-03T17:12:26.520Z,36.10
2023-03-03T17:15:14.981Z,38.30
2023-03-03T17:17:47.131Z,38.97
2023-03-03T17:20:26.791Z,34.63
2023-03-03T17:23:03.277Z,38.17
2023-03-03T17:25:37.882Z,35.58
2023-03-03T17:28:16.084Z,37.63
2023-03-03T17:30:48.052Z,36.35
2023-03-03T17:33:25.542Z,36.90
2023-03-03T17:36:03.845Z,39.20
2023-03-03T17:38:38.283Z,36.65
2023-03-03T17:41:12.453Z,38.80
2023-03-03T17:43:44.906Z,37.47
2023-03-03T17:46:18.068Z,35.85
2023-03-03T17:49:06.167Z,36.85
2023-03-03T17:52:09.157Z,36.10
2023-03-03T17:54:55.688Z,35.80
2023-03-03T17:57:34.998Z,35.67
2023-03-03T18:00:09.799Z,38.03
2023-03-03T18:02:56.878Z,37.90
2023-03-03T18:05:47.689Z,36.28
2023-03-03T18:08:28.546Z,39.90
2023-03-03T18:11:19.128Z,39.47
2023-03-03T18:14:04.043Z,39.97
2023-03-03T18:16:40.049Z,40.17
2023-03-03T18:19:20.544Z,39.08
2023-03-03T18:21:54.770Z,41.90
2023-03-03T18:24:33.095Z,38.25
2023-03-03T18:27:16.937Z,39.28
2023-03-03T18:30:10.015Z,38.38
2023-03-03T18:32:47.811Z,42.03
2023-03-03T18:35:25.774Z,40.92
2023-03-03T18:37:55.376Z,41.83
2023-03-03T18:40:31.989Z,42.50
2023-03-03T18:43:01.533Z,45.78
2023-03-03T18:45:55.012Z,57.95
2023-03-03T18:48:25.619Z,43.80
2023-03-03T18:50:55.107Z,43.08
2023-03-03T18:53:26.981Z,39.60
2023-03-03T18:55:56.978Z,42.20
2023-03-03T18:58:36.951Z,43.80
2023-03-03T19:01:41.553Z,42.90
2023-03-03T19:04:26.723Z,43.63
2023-03-03T19:07:26.898Z,43.75
2023-03-03T19:10:01.780Z,44.47
2023-03-03T19:12:48.111Z,43.83
2023-03-03T19:15:47.673Z,47.33
2023-03-03T19:18:18.416Z,48.50
2023-03-03T19:20:52.214Z,48.33
2023-03-03T19:23:23.151Z,46.92
2023-03-03T19:26:23.222Z,49.05
2023-03-03T19:28:54.230Z,51.38
2023-03-03T19:31:27.038Z,52.50
2023-03-03T19:33:57.262Z,52.13
2023-03-03T19:36:42.967Z,51.77
2023-03-03T19:39:40.473Z,50.50
2023-03-03T19:42:14.161Z,53.60
2023-03-03T19:44:51.221Z,52.78
2023-03-03T19:47:26.769Z,53.08
2023-03-03T19:50:00.830Z,49.72
2023-03-03T19:52:36.757Z,56.20
2023-03-03T19:55:16.801Z,52.50
2023-03-03T19:57:51.586Z,54.45
2023-03-03T20:00:23.825Z,56.13
2023-03-03T20:03:05.075Z,53.22
2023-03-03T20:05:35.794Z,54.42
2023-03-03T20:08:10.780Z,58.15
2023-03-03T20:10:43.674Z,53.65
2023-03-03T20:13:32.047Z,53.53
2023-03-03T20:16:05.664Z,58.10
2023-03-03T20:19:02.545Z,58.58
2023-03-03T20:21:35.112Z,60.70
2023-03-03T20:24:18.673Z,59.20
2023-03-03T20:26:57.799Z,56.65
2023-03-03T20:30:02.580Z,57.63
2023-03-03T20:32:36.892Z,60.97
2023-03-03T20:35:11.645Z,60.20
2023-03-03T20:37:47.056Z,60.78
2023-03-03T20:40:27.186Z,59.95
2023-03-03T20:43:03.111Z,62.70
2023-03-03T20:45:37.555Z,62.20
2023-03-03T20:48:14.135Z,64.85
2023-03-03T20:50:50.269Z,64.32
2023-03-03T20:53:23.200Z,61.72
2023-03-03T20:56:00.633Z,61.88
2023-03-03T20:58:34.168Z,59.20
2023-03-03T21:01:06.687Z,68.20
2023-03-03T21:03:37.469Z,71.72
2023-03-03T21:06:09.348Z,61.90
2023-03-03T21:08:48.410Z,65.50
2023-03-03T21:11:21.564Z,66.35
2023-03-03T21:13:52.053Z,65.70
2023-03-03T21:16:35.660Z,68.68
2023-03-03T21:19:06.185Z,71.85
2023-03-03T21:21:41.015Z,66.53
2023-03-03T21:24:13.241Z,71.70
2023-03-03T21:26:56.336Z,70.95
2023-03-03T21:29:27.650Z,78.30
2023-03-03T21:31:57.850Z,69.72
2023-03-03T21:34:29.502Z,70.40
2023-03-03T21:36:59.089Z,70.22
2023-03-03T21:39:32.410Z,66.97
2023-03-03T21:42:05.688Z,71.55
2023-03-03T21:44:40.831Z,78.57
2023-03-03T21:47:11.126Z,75.72
2023-03-03T21:49:43.263Z,74.20
2023-03-03T21:52:13.000Z,73.05
2023-03-03T21:54:42.696Z,75.07
2023-03-03T21:57:15.132Z,75.03
2023-03-03T21:59:44.616Z,73.93
2023-03-03T22:02:14.052Z,74.28
2023-03-03T22:04:43.606Z,77.63
2023-03-03T22:07:13.112Z,73.07
2023-03-03T22:09:42.591Z,75.88
2023-03-03T22:12:14.620Z,77.80
2023-03-03T22:14:44.102Z,73.85
2023-03-03T22:17:13.572Z,73.72
2023-03-03T22:19:42.999Z,73.25
2023-03-03T22:22:12.450Z,77.35
2023-03-03T22:24:42.053Z,69.55
2023-03-03T22:27:14.622Z,75.60
2023-03-03T22:29:44.089Z,67.72
2023-03-03T22:32:13.561Z,73.90
2023-03-03T22:34:43.262Z,76.95
2023-03-03T22:37:12.681Z,80.43
2023-03-03T22:39:42.255Z,73.20
2023-03-03T22:42:14.274Z,73.25
2023-03-03T22:44:45.892Z,71.30
2023-03-03T22:47:15.744Z,68.10
2023-03-03T22:49:45.207Z,72.38
2023-03-03T22:52:14.640Z,78.97
2023-03-03T22:54:44.215Z,77.63
2023-03-03T22:57:16.252Z,72.05
2023-03-03T22:59:45.720Z,73.50
2023-03-03T23:02:15.178Z,72.03
2023-03-03T23:04:44.714Z,77.68
2023-03-03T23:07:14.223Z,74.35
2023-03-03T23:09:43.723Z,75.22
2023-03-03T23:12:15.742Z,77.30
2023-03-03T23:14:45.196Z,76.05
2023-03-03T23:17:14.957Z,73.25
2023-03-03T23:19:46.244Z,71.18
2023-03-03T23:22:15.864Z,74.05
2023-03-03T23:24:45.717Z,72.68
2023-03-03T23:27:17.759Z,70.35
2023-03-03T23:29:47.244Z,73.60
2023-03-03T23:32:16.742Z,70.75
2023-03-03T23:34:46.224Z,81.07
2023-03-03T23:37:15.694Z,75.72
2023-03-03T23:39:45.151Z,75.07
2023-03-03T23:42:17.209Z,73.90
2023-03-03T23:44:46.707Z,68.85
2023-03-03T23:47:16.165Z,69.95
2023-03-03T23:49:45.625Z,75.28
2023-03-03T23:52:15.155Z,70.60
2023-03-03T23:54:44.612Z,72.03
2023-03-03T23:57:14.072Z,75.05
2023-03-03T23:59:46.172Z,77.05
